Greystone, Colorado
Current Conditions -  °F | °C
As of 8:53 PM on Sunday 21 Dec 2014 (Local Time) from KVEL Reporting Station
Overcast Overcast  
Wind Chill: 31°   Ceiling: 8500
Heat Index: 35°   Visibility: 10mi
Dew Point: 30°   Wind: 5mph
Humidity: 82%   Direction: 330°NNW
Pressure: 29.85"   Gusts: NA
Location:  40.7245°N, 108.541°W
Report Text: KVEL 220353Z AUTO 33004KT 10SM OVC085 02/M01 A2985 RMK AO2 SLP119 T00171011
Loading
Personal Weather Stations






























Interactive Weather Map New forecast layout! Learn more

10-Day Weather Forecast

Advertisements
Track Severe Weather on mobile